Time;durP1;ratioP1;P1;durP2;ratioP2;P2;SDS_P1;SDS_P2;PMS_P1;PMS_P2;Temp;Humidity;BMP_temperature;BMP_pressure;BME280_temperature;BME280_humidity;BME280_pressure;Samples;Min_cycle;Max_cycle;Signal;HPM_P1;HPM_P2
2023/08/28 00:00:20;;;;;;;1.35;0.75;;;15.70;94.60;;;;;;5094471;27;20047;-68
2023/08/28 00:02:45;;;;;;;2.63;0.73;;;15.70;94.60;;;;;;5081938;27;20122;-74
2023/08/28 00:05:11;;;;;;;1.30;0.70;;;15.70;94.60;;;;;;5095934;27;21233;-72
2023/08/28 00:07:37;;;;;;;1.75;0.80;;;15.70;94.70;;;;;;5080032;27;20535;-71
2023/08/28 00:10:03;;;;;;;1.98;0.63;;;15.70;94.90;;;;;;5117679;27;20043;-70
2023/08/28 00:12:29;;;;;;;2.45;0.73;;;15.70;95.00;;;;;;5079670;27;20055;-69
2023/08/28 00:14:55;;;;;;;4.25;0.77;;;15.70;95.20;;;;;;5116643;27;20039;-72
2023/08/28 00:17:21;;;;;;;1.75;0.82;;;15.70;95.40;;;;;;5094935;27;20670;-73
2023/08/28 00:19:47;;;;;;;1.45;0.75;;;15.80;95.40;;;;;;5062780;27;20042;-70
2023/08/28 00:22:13;;;;;;;4.32;0.95;;;15.80;95.50;;;;;;5081751;27;20558;-70
2023/08/28 00:24:38;;;;;;;1.70;0.80;;;15.80;95.60;;;;;;5081681;27;20050;-70
2023/08/28 00:27:04;;;;;;;2.55;0.90;;;15.80;95.60;;;;;;5066591;27;20112;-70
2023/08/28 00:29:30;;;;;;;2.05;0.95;;;15.80;95.70;;;;;;5090731;27;20073;-71
2023/08/28 00:31:56;;;;;;;4.18;1.10;;;15.80;95.80;;;;;;5115904;27;20278;-73
2023/08/28 00:34:22;;;;;;;3.13;0.70;;;15.80;95.90;;;;;;5079560;27;20407;-72
2023/08/28 00:36:47;;;;;;;1.20;0.60;;;15.80;95.90;;;;;;5080069;27;20047;-70
2023/08/28 00:39:13;;;;;;;4.53;0.77;;;15.80;96.00;;;;;;5079413;27;20968;-71
2023/08/28 00:41:39;;;;;;;3.25;1.00;;;15.80;96.20;;;;;;5096050;27;20046;-72
2023/08/28 00:44:05;;;;;;;2.90;0.80;;;15.80;96.40;;;;;;5096517;27;20039;-74
2023/08/28 00:46:30;;;;;;;2.90;0.82;;;15.80;96.50;;;;;;5075887;27;20043;-70
2023/08/28 00:48:56;;;;;;;2.67;0.82;;;15.80;96.50;;;;;;5074359;27;20056;-74
2023/08/28 00:51:22;;;;;;;4.10;0.98;;;15.80;96.60;;;;;;5098468;27;20075;-70
2023/08/28 00:53:48;;;;;;;2.22;0.80;;;15.80;96.50;;;;;;5095615;27;20043;-70
2023/08/28 00:56:14;;;;;;;3.03;0.70;;;15.70;96.30;;;;;;5080176;27;20047;-71
2023/08/28 00:58:41;;;;;;;1.70;0.90;;;15.70;96.10;;;;;;5105065;27;20134;-71
2023/08/28 01:01:07;;;;;;;1.92;0.50;;;15.70;96.00;;;;;;5081856;27;20318;-71
2023/08/28 01:03:32;;;;;;;1.77;0.82;;;15.70;95.80;;;;;;5100643;27;20072;-74
2023/08/28 01:06:20;;;;;;;1.08;0.60;;;15.70;95.60;;;;;;5097980;27;20903;-71
2023/08/28 01:08:54;;;;;;;2.85;0.73;;;15.70;95.40;;;;;;5094240;27;20048;-74
2023/08/28 01:11:29;;;;;;;1.83;0.70;;;15.70;95.20;;;;;;5102466;27;20556;-69
2023/08/28 01:14:12;;;;;;;1.43;0.50;;;15.60;95.10;;;;;;5100659;27;20501;-71
2023/08/28 01:16:40;;;;;;;1.40;0.70;;;15.60;95.10;;;;;;5098302;27;20335;-74
2023/08/28 01:19:14;;;;;;;2.28;0.70;;;15.60;95.20;;;;;;5098389;27;20075;-71
2023/08/28 01:21:44;;;;;;;1.17;0.60;;;15.60;95.10;;;;;;5082894;27;20047;-72
2023/08/28 01:24:13;;;;;;;1.27;0.52;;;15.50;95.00;;;;;;5101945;27;20031;-72
2023/08/28 01:26:39;;;;;;;2.08;0.80;;;15.50;94.80;;;;;;5084719;27;20039;-70
2023/08/28 01:29:05;;;;;;;2.47;0.80;;;15.50;94.60;;;;;;5091984;27;20453;-69
2023/08/28 01:31:30;;;;;;;2.22;0.70;;;15.50;94.40;;;;;;5104537;27;20054;-69
2023/08/28 01:33:56;;;;;;;1.67;0.75;;;15.50;94.30;;;;;;5097485;27;20083;-70
2023/08/28 01:36:40;;;;;;;1.20;0.52;;;15.50;94.20;;;;;;5075710;27;20123;-73
2023/08/28 01:39:12;;;;;;;2.25;0.68;;;15.50;94.00;;;;;;5098545;27;20043;-69
2023/08/28 01:41:40;;;;;;;2.25;0.80;;;15.50;94.10;;;;;;5099572;27;20082;-72
2023/08/28 01:44:07;;;;;;;1.25;0.68;;;15.50;94.00;;;;;;5097444;27;20046;-71
2023/08/28 01:46:34;;;;;;;1.15;0.68;;;15.50;93.90;;;;;;5082735;27;20050;-73
2023/08/28 01:49:00;;;;;;;1.70;0.77;;;15.50;93.90;;;;;;5077953;27;20486;-71
2023/08/28 01:51:25;;;;;;;2.80;0.60;;;15.50;93.90;;;;;;5094196;27;20043;-70
2023/08/28 01:53:53;;;;;;;1.08;0.73;;;15.50;94.10;;;;;;5067860;27;20051;-70
2023/08/28 01:56:21;;;;;;;2.88;0.70;;;15.50;94.20;;;;;;5078492;27;20062;-73
2023/08/28 01:58:57;;;;;;;1.73;0.60;;;15.50;94.20;;;;;;5098416;27;20075;-70
2023/08/28 02:01:24;;;;;;;0.82;0.70;;;15.50;94.20;;;;;;5098975;27;20832;-72
2023/08/28 02:03:51;;;;;;;2.95;0.60;;;15.50;94.40;;;;;;5093878;27;20047;-71
2023/08/28 02:06:17;;;;;;;1.67;0.50;;;15.50;94.40;;;;;;5095509;27;20050;-70
2023/08/28 02:08:43;;;;;;;2.05;0.80;;;15.60;94.40;;;;;;5099885;27;20426;-69
2023/08/28 02:11:09;;;;;;;2.83;0.80;;;15.60;94.40;;;;;;5080881;27;20130;-73
2023/08/28 02:13:35;;;;;;;3.22;1.00;;;15.60;94.50;;;;;;5103117;27;20051;-69
2023/08/28 02:16:02;;;;;;;2.42;0.90;;;15.60;94.60;;;;;;5098832;27;20058;-69
2023/08/28 02:18:30;;;;;;;1.60;0.80;;;15.60;94.60;;;;;;5096376;27;20055;-70
2023/08/28 02:20:56;;;;;;;3.35;0.70;;;15.60;94.60;;;;;;5098636;27;20074;-71
2023/08/28 02:23:22;;;;;;;2.58;0.60;;;15.60;94.70;;;;;;5102235;27;20048;-69
2023/08/28 02:25:48;;;;;;;2.72;0.80;;;15.60;94.80;;;;;;5091451;27;20051;-70
2023/08/28 02:28:18;;;;;;;2.58;0.70;;;15.60;94.80;;;;;;5123221;27;20173;-72
2023/08/28 02:30:45;;;;;;;1.90;0.77;;;15.60;94.70;;;;;;5065777;27;20126;-70
2023/08/28 02:33:11;;;;;;;2.97;0.60;;;15.60;94.60;;;;;;5091995;27;20099;-71
2023/08/28 02:35:37;;;;;;;1.17;0.80;;;15.50;94.80;;;;;;5099808;27;20046;-73
2023/08/28 02:38:03;;;;;;;1.42;0.65;;;15.50;94.50;;;;;;5075763;27;20050;-69
2023/08/28 02:40:29;;;;;;;1.40;0.60;;;15.60;94.50;;;;;;5099236;27;20134;-69
2023/08/28 02:42:55;;;;;;;1.52;0.65;;;15.50;94.50;;;;;;5076360;27;20047;-71
2023/08/28 02:45:21;;;;;;;1.55;0.70;;;15.50;94.50;;;;;;5119183;27;20400;-69
2023/08/28 02:47:47;;;;;;;2.78;0.80;;;15.50;94.80;;;;;;5099802;27;20065;-68
2023/08/28 02:50:12;;;;;;;3.10;0.73;;;15.50;94.60;;;;;;5074906;27;20032;-69
2023/08/28 02:52:38;;;;;;;1.90;0.90;;;15.50;94.70;;;;;;5093996;27;20153;-69
2023/08/28 02:55:04;;;;;;;1.67;0.70;;;15.50;94.80;;;;;;5082742;27;20043;-70
2023/08/28 02:57:30;;;;;;;3.53;0.90;;;15.50;94.90;;;;;;5112736;27;20103;-71
2023/08/28 02:59:56;;;;;;;1.77;0.73;;;15.60;95.00;;;;;;5081993;27;20177;-70
2023/08/28 03:02:22;;;;;;;1.90;0.85;;;15.60;95.00;;;;;;5100467;27;20058;-70
2023/08/28 03:04:47;;;;;;;2.72;1.02;;;15.60;95.00;;;;;;5117109;27;20096;-69
2023/08/28 03:07:13;;;;;;;1.63;0.90;;;15.60;95.30;;;;;;5120795;27;20043;-70
2023/08/28 03:09:39;;;;;;;4.35;0.80;;;15.60;95.10;;;;;;5072687;27;20058;-70
2023/08/28 03:12:05;;;;;;;3.47;0.88;;;15.60;95.50;;;;;;5115853;27;20190;-74
2023/08/28 03:14:31;;;;;;;2.42;0.93;;;15.60;95.40;;;;;;5100707;27;20047;-75
2023/08/28 03:16:57;;;;;;;2.67;0.98;;;15.60;95.60;;;;;;5101772;27;20042;-70
2023/08/28 03:19:22;;;;;;;2.47;0.95;;;15.60;95.80;;;;;;5095677;27;20039;-73
2023/08/28 03:21:48;;;;;;;1.73;0.80;;;15.60;95.90;;;;;;5077082;27;21011;-69
2023/08/28 03:24:14;;;;;;;2.17;0.70;;;15.60;96.20;;;;;;5119651;27;20092;-69
2023/08/28 03:26:40;;;;;;;2.88;0.90;;;15.60;96.30;;;;;;5103406;27;20427;-70
2023/08/28 03:29:06;;;;;;;2.90;0.95;;;15.60;96.50;;;;;;5081133;27;20191;-71
2023/08/28 03:31:32;;;;;;;3.05;1.00;;;15.70;96.70;;;;;;5098694;27;20144;-71
2023/08/28 03:34:00;;;;;;;3.13;0.88;;;15.70;96.90;;;;;;5073209;27;20090;-71
2023/08/28 03:36:26;;;;;;;4.82;1.00;;;15.80;97.10;;;;;;5101412;27;20043;-69
2023/08/28 03:38:51;;;;;;;2.05;0.90;;;15.80;97.20;;;;;;5116551;27;20096;-70
2023/08/28 03:41:17;;;;;;;1.30;0.80;;;15.80;97.40;;;;;;5084013;27;20050;-71
2023/08/28 03:43:43;;;;;;;3.30;0.88;;;15.80;97.50;;;;;;5045441;27;20046;-69
2023/08/28 03:46:08;;;;;;;2.22;0.80;;;15.90;97.50;;;;;;5117728;27;20050;-69
2023/08/28 03:48:34;;;;;;;3.10;0.95;;;15.80;97.60;;;;;;5080599;27;20043;-69
2023/08/28 03:51:00;;;;;;;1.77;0.80;;;15.90;97.60;;;;;;5082482;27;20579;-69
2023/08/28 03:53:28;;;;;;;1.90;0.77;;;15.80;97.40;;;;;;5078907;27;20043;-71
2023/08/28 03:55:53;;;;;;;1.75;0.77;;;15.80;97.30;;;;;;5059443;27;20043;-70
2023/08/28 03:58:21;;;;;;;1.00;0.65;;;15.80;97.20;;;;;;5080709;27;20058;-73
2023/08/28 04:00:51;;;;;;;2.45;0.85;;;15.90;97.20;;;;;;5108675;27;20126;-70
2023/08/28 04:03:17;;;;;;;1.23;0.80;;;15.90;97.20;;;;;;5098875;27;20161;-72
2023/08/28 04:05:44;;;;;;;2.50;0.90;;;15.90;97.10;;;;;;5098389;27;20553;-70
2023/08/28 04:08:10;;;;;;;1.85;0.93;;;15.90;97.10;;;;;;5061167;27;20055;-71
2023/08/28 04:10:36;;;;;;;3.10;1.00;;;15.90;97.10;;;;;;5090551;27;20469;-69
2023/08/28 04:13:02;;;;;;;4.80;1.27;;;15.90;97.20;;;;;;5099758;27;20053;-70
2023/08/28 04:15:28;;;;;;;1.05;0.80;;;15.70;97.20;;;;;;5080577;27;20073;-70
2023/08/28 04:17:53;;;;;;;5.18;1.80;;;15.90;97.30;;;;;;5097212;27;20113;-69
2023/08/28 04:20:19;;;;;;;4.80;1.20;;;15.90;97.50;;;;;;5098368;27;20043;-72
2023/08/28 04:22:45;;;;;;;3.25;1.10;;;15.90;97.70;;;;;;5083737;27;20451;-69
2023/08/28 04:25:12;;;;;;;2.97;0.90;;;15.90;97.80;;;;;;5098839;27;20043;-71
2023/08/28 04:27:39;;;;;;;5.35;1.30;;;15.90;98.20;;;;;;5101264;27;20660;-71
2023/08/28 04:30:07;;;;;;;3.53;1.13;;;15.80;98.30;;;;;;5095688;27;20039;-68
2023/08/28 04:32:33;;;;;;;2.15;0.85;;;15.80;98.50;;;;;;5113430;27;20054;-72
2023/08/28 04:34:59;;;;;;;2.70;1.00;;;15.70;98.60;;;;;;5095121;27;20047;-70
2023/08/28 04:37:25;;;;;;;4.05;1.02;;;15.70;98.70;;;;;;5120423;27;20054;-70
2023/08/28 04:39:51;;;;;;;2.88;0.93;;;15.60;98.80;;;;;;5095609;27;20092;-70
2023/08/28 04:42:17;;;;;;;2.00;0.85;;;15.60;99.00;;;;;;5097866;27;20459;-70
2023/08/28 04:44:43;;;;;;;2.83;1.35;;;15.50;99.10;;;;;;5094694;27;20533;-71
2023/08/28 04:47:09;;;;;;;5.03;1.00;;;15.50;99.10;;;;;;5108462;27;20127;-74
2023/08/28 04:49:35;;;;;;;2.72;1.20;;;15.50;99.20;;;;;;5095003;27;20112;-70
2023/08/28 04:52:03;;;;;;;2.13;0.98;;;15.50;99.20;;;;;;5095969;27;20051;-70
2023/08/28 04:54:28;;;;;;;2.20;1.00;;;15.40;99.20;;;;;;5060828;27;20083;-74
2023/08/28 04:57:03;;;;;;;3.80;1.10;;;15.40;99.20;;;;;;5102022;27;20062;-71
2023/08/28 04:59:32;;;;;;;6.00;1.38;;;15.40;99.20;;;;;;5116843;27;20519;-71
2023/08/28 05:02:03;;;;;;;3.03;1.15;;;15.40;99.30;;;;;;5067725;27;20047;-71
2023/08/28 05:04:32;;;;;;;3.15;1.08;;;15.40;99.40;;;;;;5105341;27;20070;-71
2023/08/28 05:07:05;;;;;;;5.00;1.35;;;15.40;99.30;;;;;;5057028;27;20514;-71
2023/08/28 05:09:34;;;;;;;3.42;1.25;;;15.40;99.40;;;;;;5096116;27;20419;-73
2023/08/28 05:12:00;;;;;;;2.40;1.00;;;15.40;99.40;;;;;;5104203;27;20130;-73
2023/08/28 05:14:26;;;;;;;6.35;1.20;;;15.40;99.40;;;;;;5070057;27;20091;-71
2023/08/28 05:16:53;;;;;;;2.95;1.05;;;15.40;99.40;;;;;;5086143;27;20168;-71
2023/08/28 05:19:25;;;;;;;4.30;1.30;;;15.40;99.40;;;;;;5109061;27;20895;-72
2023/08/28 05:21:51;;;;;;;4.40;1.20;;;15.40;99.50;;;;;;5060118;27;20429;-73
2023/08/28 05:24:16;;;;;;;3.30;1.50;;;15.40;99.50;;;;;;5060251;27;20079;-72
2023/08/28 05:26:42;;;;;;;6.00;1.40;;;15.40;99.60;;;;;;5077823;27;20055;-71
2023/08/28 05:29:11;;;;;;;2.17;1.10;;;15.40;99.60;;;;;;5091742;27;20507;-74
2023/08/28 05:31:36;;;;;;;3.22;1.27;;;15.50;99.60;;;;;;5088971;27;20843;-71
2023/08/28 05:34:08;;;;;;;5.03;1.17;;;15.50;99.60;;;;;;5076752;27;20046;-71
2023/08/28 05:36:34;;;;;;;2.67;1.13;;;15.50;99.50;;;;;;5075398;27;20070;-74
2023/08/28 05:39:01;;;;;;;3.33;1.10;;;15.00;99.30;;;;;;5054146;27;20546;-71
2023/08/28 05:41:27;;;;;;;2.28;1.02;;;15.60;99.50;;;;;;5089206;27;20374;-72
2023/08/28 05:43:53;;;;;;;3.15;1.25;;;15.70;99.30;;;;;;5110310;27;20043;-71
2023/08/28 05:46:19;;;;;;;2.58;1.10;;;15.70;99.30;;;;;;5071219;27;20062;-74
2023/08/28 05:48:46;;;;;;;2.83;0.98;;;15.70;99.10;;;;;;5054454;27;20117;-73
2023/08/28 05:51:12;;;;;;;2.20;0.90;;;15.70;99.00;;;;;;5088339;27;20544;-72
2023/08/28 05:53:38;;;;;;;2.15;1.10;;;15.80;98.80;;;;;;5065249;27;20058;-74
2023/08/28 05:56:03;;;;;;;3.38;0.90;;;15.80;98.70;;;;;;5085577;27;20482;-71
2023/08/28 05:58:35;;;;;;;2.10;0.80;;;15.80;98.50;;;;;;5083857;27;20039;-73
2023/08/28 06:01:01;;;;;;;3.17;1.10;;;15.80;98.30;;;;;;5102827;27;20047;-71
2023/08/28 06:03:26;;;;;;;2.30;1.00;;;15.80;98.10;;;;;;5086540;27;20169;-70
2023/08/28 06:05:52;;;;;;;2.60;1.25;;;15.80;98.00;;;;;;5091187;27;20096;-71
2023/08/28 06:08:18;;;;;;;1.30;0.88;;;15.80;97.90;;;;;;5091865;27;20035;-71
2023/08/28 06:10:45;;;;;;;2.67;0.80;;;15.80;97.80;;;;;;5070671;27;20121;-71
2023/08/28 06:13:11;;;;;;;3.60;0.98;;;15.90;97.90;;;;;;5069605;27;21489;-75
2023/08/28 06:15:37;;;;;;;2.30;0.80;;;15.80;97.80;;;;;;5071862;27;20379;-71
2023/08/28 06:18:04;;;;;;;2.40;0.80;;;15.90;97.80;;;;;;5074811;27;20069;-72
2023/08/28 06:20:30;;;;;;;1.80;0.82;;;15.90;97.80;;;;;;5070538;27;20496;-76
2023/08/28 06:22:56;;;;;;;3.05;1.00;;;15.90;97.70;;;;;;5073086;27;20038;-72
2023/08/28 06:25:22;;;;;;;1.90;0.80;;;16.00;97.60;;;;;;5090567;27;20648;-75
2023/08/28 06:27:48;;;;;;;2.25;0.85;;;16.00;97.40;;;;;;5092334;27;20437;-72
2023/08/28 06:30:14;;;;;;;4.05;1.15;;;16.00;97.10;;;;;;5086697;27;20035;-73
2023/08/28 06:32:40;;;;;;;2.00;0.90;;;16.10;97.10;;;;;;5073006;27;21030;-72
2023/08/28 06:35:06;;;;;;;4.32;1.10;;;16.20;97.00;;;;;;5081111;27;20079;-74
2023/08/28 06:37:32;;;;;;;3.80;0.90;;;16.10;96.90;;;;;;5096521;27;20108;-70
2023/08/28 06:39:58;;;;;;;2.45;1.10;;;16.20;96.70;;;;;;5096971;27;20059;-76
2023/08/28 06:42:24;;;;;;;2.60;1.00;;;16.30;96.60;;;;;;5090964;27;20038;-73
2023/08/28 06:44:50;;;;;;;2.28;1.15;;;16.30;96.50;;;;;;5075888;27;20039;-73
2023/08/28 06:47:17;;;;;;;1.88;0.88;;;16.40;96.40;;;;;;5094581;27;20249;-74
2023/08/28 06:49:42;;;;;;;2.03;0.63;;;16.50;96.30;;;;;;5100007;27;20039;-76
2023/08/28 06:52:09;;;;;;;2.88;1.10;;;16.50;96.10;;;;;;5081533;27;20096;-73
2023/08/28 06:54:36;;;;;;;2.92;0.88;;;16.60;95.90;;;;;;5074444;27;20081;-71
2023/08/28 06:57:01;;;;;;;1.88;0.82;;;16.70;95.90;;;;;;5070072;27;20455;-73
2023/08/28 06:59:27;;;;;;;1.80;0.90;;;16.80;95.60;;;;;;5056097;27;20047;-75
2023/08/28 07:01:53;;;;;;;2.40;0.90;;;16.90;95.20;;;;;;5064938;27;20051;-72
2023/08/28 07:04:19;;;;;;;2.45;0.73;;;17.00;94.80;;;;;;5085991;27;20052;-74
2023/08/28 07:06:44;;;;;;;3.05;0.98;;;17.10;94.40;;;;;;5053815;27;20051;-73
2023/08/28 07:09:10;;;;;;;2.45;0.60;;;17.20;94.00;;;;;;5086834;27;20062;-75
2023/08/28 07:11:36;;;;;;;1.80;1.00;;;17.30;93.70;;;;;;5085281;27;20595;-74
2023/08/28 07:14:06;;;;;;;1.60;0.68;;;17.40;93.30;;;;;;5102935;27;20051;-73
2023/08/28 07:16:32;;;;;;;3.10;0.73;;;17.50;93.00;;;;;;5083618;27;20826;-75
2023/08/28 07:18:58;;;;;;;2.30;0.90;;;17.30;92.60;;;;;;5052145;27;20122;-75
2023/08/28 07:21:23;;;;;;;2.03;0.90;;;17.80;92.10;;;;;;5085909;27;20177;-73
2023/08/28 07:23:51;;;;;;;2.88;0.68;;;18.00;91.80;;;;;;5069229;27;20087;-76
2023/08/28 07:26:17;;;;;;;2.70;1.15;;;18.10;91.60;;;;;;5070261;27;20888;-74
2023/08/28 07:28:46;;;;;;;5.78;1.42;;;18.30;91.20;;;;;;5083524;27;20039;-73
2023/08/28 07:31:12;;;;;;;1.30;0.80;;;18.50;90.70;;;;;;5085465;27;20055;-75
2023/08/28 07:33:38;;;;;;;2.42;0.70;;;18.70;90.20;;;;;;5085253;27;20038;-72
2023/08/28 07:36:04;;;;;;;2.17;0.70;;;18.70;89.30;;;;;;5083292;27;20481;-75
2023/08/28 07:38:30;;;;;;;3.35;0.98;;;18.70;88.40;;;;;;5068784;27;20170;-74
2023/08/28 07:40:56;;;;;;;3.50;0.90;;;18.70;87.70;;;;;;5087370;27;20047;-74
2023/08/28 07:43:21;;;;;;;2.80;0.85;;;18.70;87.10;;;;;;5054004;27;20039;-72
2023/08/28 07:45:47;;;;;;;4.25;0.93;;;18.70;87.00;;;;;;5085148;27;21761;-76
2023/08/28 07:48:13;;;;;;;1.25;0.68;;;18.70;86.80;;;;;;5072051;27;20035;-72
2023/08/28 07:50:40;;;;;;;1.90;0.65;;;18.80;86.70;;;;;;5088373;27;20120;-72
2023/08/28 07:53:06;;;;;;;1.67;0.75;;;19.00;85.90;;;;;;5071499;27;20051;-72
2023/08/28 07:55:32;;;;;;;3.03;0.80;;;19.20;83.70;;;;;;5066322;27;20165;-75
2023/08/28 07:57:58;;;;;;;3.58;0.93;;;19.40;82.40;;;;;;5087423;27;20159;-73
2023/08/28 08:00:24;;;;;;;2.67;0.80;;;19.50;80.00;;;;;;5067899;27;20041;-75
2023/08/28 08:02:53;;;;;;;3.55;1.00;;;19.80;78.20;;;;;;5073553;27;20055;-72
2023/08/28 08:05:19;;;;;;;2.72;0.63;;;19.90;76.50;;;;;;5095050;27;20097;-73
2023/08/28 08:07:45;;;;;;;2.20;0.60;;;20.20;73.80;;;;;;5074268;27;20141;-72
2023/08/28 08:10:13;;;;;;;1.63;0.70;;;20.40;72.70;;;;;;5077612;27;20043;-74
2023/08/28 08:12:39;;;;;;;2.08;0.80;;;20.60;70.50;;;;;;5098303;27;20336;-74
2023/08/28 08:15:06;;;;;;;2.30;0.80;;;20.80;67.50;;;;;;5094890;27;20047;-74
2023/08/28 08:17:33;;;;;;;2.08;0.70;;;20.90;64.30;;;;;;5101481;27;20115;-72
2023/08/28 08:20:00;;;;;;;1.85;0.60;;;21.00;62.00;;;;;;5092450;27;20055;-74
2023/08/28 08:22:25;;;;;;;2.58;0.88;;;20.90;59.10;;;;;;5079846;27;20435;-73
2023/08/28 08:24:51;;;;;;;1.10;0.70;;;21.00;58.00;;;;;;5095757;27;20482;-73
2023/08/28 08:27:17;;;;;;;6.00;0.88;;;21.10;59.80;;;;;;5084486;27;20070;-72
2023/08/28 08:29:43;;;;;;;3.17;0.80;;;21.20;60.50;;;;;;5097993;27;20285;-74
2023/08/28 08:32:09;;;;;;;3.42;0.80;;;21.20;58.10;;;;;;5078496;27;20054;-73
2023/08/28 08:34:35;;;;;;;2.95;0.95;;;21.10;57.00;;;;;;5114475;27;20043;-74
2023/08/28 08:37:00;;;;;;;2.75;0.70;;;20.80;57.50;;;;;;5091432;27;20600;-73
2023/08/28 08:39:26;;;;;;;1.83;0.75;;;20.90;58.50;;;;;;5085379;27;20047;-72
2023/08/28 08:41:54;;;;;;;3.75;1.35;;;21.00;57.90;;;;;;5114880;27;20055;-73
2023/08/28 08:44:19;;;;;;;3.65;0.80;;;21.20;57.80;;;;;;5094513;27;20066;-75
2023/08/28 08:46:46;;;;;;;1.70;0.82;;;21.30;53.20;;;;;;5034013;28;20047;-73
2023/08/28 08:49:19;;;;;;;2.53;0.75;;;21.30;49.30;;;;;;5034828;28;20112;-73
2023/08/28 08:51:47;;;;;;;2.88;0.90;;;21.50;49.10;;;;;;5030382;28;20516;-74
2023/08/28 08:54:18;;;;;;;2.05;0.90;;;21.50;49.40;;;;;;5032950;28;20134;-75
2023/08/28 08:56:54;;;;;;;1.45;0.60;;;21.70;49.90;;;;;;5019464;28;20448;-75
2023/08/28 08:59:22;;;;;;;4.60;0.88;;;21.70;44.30;;;;;;5049425;28;20076;-74
2023/08/28 09:01:50;;;;;;;1.98;0.73;;;21.50;41.60;;;;;;5040724;28;20164;-73
2023/08/28 09:04:17;;;;;;;1.73;0.70;;;21.30;45.00;;;;;;4984980;28;20051;-71
2023/08/28 09:06:44;;;;;;;2.10;0.65;;;21.00;45.40;;;;;;5035908;28;20090;-73
2023/08/28 09:09:11;;;;;;;1.23;0.63;;;20.70;47.90;;;;;;5032606;28;20072;-75
2023/08/28 09:11:40;;;;;;;3.53;0.75;;;21.00;51.00;;;;;;5033893;28;20048;-71
2023/08/28 09:14:06;;;;;;;1.63;0.63;;;20.50;52.80;;;;;;5017960;28;20044;-74
2023/08/28 09:16:35;;;;;;;2.67;0.73;;;20.70;54.60;;;;;;5033928;28;20052;-71
2023/08/28 09:19:01;;;;;;;2.35;0.90;;;20.90;53.00;;;;;;5017204;28;20558;-71
2023/08/28 09:21:35;;;;;;;1.88;0.80;;;21.30;53.50;;;;;;5014953;28;20056;-73
2023/08/28 09:24:00;;;;;;;3.78;0.80;;;21.50;49.20;;;;;;5030711;28;20049;-73
2023/08/28 09:26:26;;;;;;;2.05;0.77;;;21.80;46.70;;;;;;5036407;28;20060;-73
2023/08/28 09:28:59;;;;;;;5.40;0.98;;;22.00;43.00;;;;;;5053449;28;20048;-75
2023/08/28 09:31:34;;;;;;;2.17;0.75;;;22.40;43.40;;;;;;5039754;28;20063;-73
2023/08/28 09:34:02;;;;;;;3.75;0.90;;;22.40;35.30;;;;;;4997050;28;20732;-75
2023/08/28 09:36:28;;;;;;;3.63;0.63;;;22.30;36.40;;;;;;5001661;28;20052;-72
2023/08/28 09:39:00;;;;;;;2.42;0.77;;;22.30;38.20;;;;;;5033675;28;20063;-74
2023/08/28 09:41:43;;;;;;;2.25;0.77;;;22.20;39.50;;;;;;5025316;28;20088;-73
2023/08/28 09:44:10;;;;;;;1.70;0.70;;;22.40;41.70;;;;;;5020356;28;20094;-74
2023/08/28 09:46:47;;;;;;;2.20;0.80;;;22.50;35.10;;;;;;4986377;28;20497;-75
2023/08/28 09:49:13;;;;;;;2.85;0.90;;;22.40;30.10;;;;;;5047770;28;20066;-73
2023/08/28 09:51:44;;;;;;;2.17;0.98;;;22.70;31.80;;;;;;5017852;28;20056;-75
2023/08/28 09:54:17;;;;;;;1.55;0.80;;;23.10;28.20;;;;;;5035741;28;20110;-72
2023/08/28 09:56:44;;;;;;;5.22;1.02;;;23.30;25.00;;;;;;5034088;28;21611;-73
2023/08/28 09:59:12;;;;;;;1.90;1.05;;;23.50;19.90;;;;;;5017248;28;20040;-72
2023/08/28 10:01:38;;;;;;;1.58;0.70;;;23.50;18.50;;;;;;5033729;28;20048;-72
2023/08/28 10:04:13;;;;;;;1.90;0.77;;;23.70;11.70;;;;;;5035372;28;20596;-74
2023/08/28 10:06:46;;;;;;;4.05;1.10;;;23.80;1.00;;;;;;5016686;28;20563;-72
2023/08/28 10:09:18;;;;;;;5.05;0.90;;;23.60;1.00;;;;;;5034558;28;20926;-72
2023/08/28 10:11:45;;;;;;;2.88;0.95;;;23.70;3.20;;;;;;5034178;28;20040;-72
2023/08/28 10:14:12;;;;;;;1.35;0.70;;;23.50;1.00;;;;;;5016712;28;20222;-75
2023/08/28 10:16:46;;;;;;;1.50;0.50;;;23.60;1.00;;;;;;5034039;28;20053;-73
2023/08/28 10:19:14;;;;;;;1.60;1.00;;;23.80;1.00;;;;;;5030646;28;20040;-74
2023/08/28 10:21:42;;;;;;;2.33;0.90;;;23.80;1.00;;;;;;5033025;28;20123;-74
2023/08/28 10:24:09;;;;;;;1.27;0.70;;;24.00;1.00;;;;;;5003869;28;20058;-73
2023/08/28 10:26:35;;;;;;;3.05;0.68;;;24.20;1.00;;;;;;5019480;28;20126;-74
2023/08/28 10:29:03;;;;;;;2.15;0.85;;;24.50;1.00;;;;;;5015177;28;20384;-75
2023/08/28 10:31:30;;;;;;;4.07;0.88;;;24.80;1.00;;;;;;5031957;28;20056;-73
2023/08/28 10:33:57;;;;;;;2.40;0.80;;;24.60;1.00;;;;;;5039118;28;20083;-73
2023/08/28 10:36:24;;;;;;;2.55;0.68;;;24.20;1.00;;;;;;5003551;28;20067;-72
2023/08/28 10:38:52;;;;;;;3.75;0.63;;;23.90;1.00;;;;;;5036978;28;20076;-72
2023/08/28 10:41:20;;;;;;;1.85;0.60;;;23.60;1.00;;;;;;5016249;28;20041;-72
2023/08/28 10:43:50;;;;;;;1.23;0.55;;;23.70;1.00;;;;;;5028654;28;20189;-72
2023/08/28 10:46:16;;;;;;;1.90;0.60;;;23.80;1.00;;;;;;5044615;28;20076;-73
2023/08/28 10:48:45;;;;;;;1.73;0.60;;;24.20;1.00;;;;;;4998638;28;20045;-73
2023/08/28 10:51:12;;;;;;;2.38;0.88;;;24.40;1.00;;;;;;5035831;28;20499;-73
2023/08/28 10:53:39;;;;;;;1.17;0.50;;;24.40;1.00;;;;;;5055374;28;20099;-72
2023/08/28 10:56:06;;;;;;;3.13;0.73;;;24.30;1.00;;;;;;5022413;28;20121;-71
2023/08/28 10:58:36;;;;;;;2.20;0.70;;;24.20;1.00;;;;;;5042383;28;20044;-74
2023/08/28 11:01:15;;;;;;;1.85;0.50;;;23.80;1.00;;;;;;5040573;28;20605;-74
2023/08/28 11:03:50;;;;;;;0.95;0.43;;;23.40;1.00;;;;;;5046866;28;20363;-72
2023/08/28 11:06:39;;;;;;;1.35;0.40;;;23.20;1.00;;;;;;5040592;28;20070;-72
2023/08/28 11:09:29;;;;;;;3.15;0.60;;;23.30;1.00;;;;;;5036973;28;20140;-71
2023/08/28 11:11:58;;;;;;;2.85;0.63;;;23.70;1.00;;;;;;5022138;28;20051;-72
2023/08/28 11:14:52;;;;;;;2.42;0.57;;;24.10;1.00;;;;;;5042937;28;20060;-74
2023/08/28 11:17:20;;;;;;;2.17;0.70;;;24.40;1.00;;;;;;5040649;28;20102;-72
2023/08/28 11:19:57;;;;;;;1.35;0.30;;;24.80;1.00;;;;;;5019207;28;20080;-74
2023/08/28 11:22:33;;;;;;;2.20;0.70;;;25.00;1.00;;;;;;5040669;28;20048;-73
2023/08/28 11:25:00;;;;;;;;;;;25.40;1.00;;;;;;5039016;28;20487;-72
2023/08/28 11:27:48;;;;;;;1.83;0.75;;;25.80;1.00;;;;;;5038803;28;19927;-73
2023/08/28 11:30:16;;;;;;;1.45;0.40;;;26.20;1.00;;;;;;5043058;28;20049;-72
2023/08/28 11:32:49;;;;;;;4.47;0.90;;;26.50;1.00;;;;;;5027158;28;20529;-72
2023/08/28 11:35:19;;;;;;;2.30;0.60;;;26.50;1.00;;;;;;5022178;28;20651;-74
2023/08/28 11:37:50;;;;;;;2.55;0.70;;;26.60;1.00;;;;;;5040053;28;20075;-73
2023/08/28 11:40:21;;;;;;;0.88;0.45;;;26.60;1.00;;;;;;5037899;28;20059;-73
2023/08/28 11:42:49;;;;;;;4.00;0.60;;;26.70;99.90;;;;;;5037127;28;20048;-73
2023/08/28 11:45:22;;;;;;;2.90;0.60;;;26.90;1.00;;;;;;5054090;28;20058;-73
2023/08/28 11:47:49;;;;;;;2.55;0.60;;;27.10;99.90;;;;;;5038084;28;20196;-75
2023/08/28 11:50:16;;;;;;;1.33;0.50;;;27.50;99.90;;;;;;5053810;28;20673;-73
2023/08/28 11:52:47;;;;;;;1.42;0.60;;;27.60;99.90;;;;;;5037951;28;20044;-73
2023/08/28 11:55:13;;;;;;;1.63;0.60;;;27.80;99.90;;;;;;5020835;28;20060;-74
2023/08/28 11:57:39;;;;;;;1.42;0.45;;;27.70;99.90;;;;;;5040018;28;20056;-74
2023/08/28 12:00:09;;;;;;;2.28;0.50;;;27.40;99.90;;;;;;5055711;28;20067;-73
2023/08/28 12:02:38;;;;;;;2.40;0.80;;;27.30;1.00;;;;;;5044694;28;20044;-74
2023/08/28 12:05:04;;;;;;;1.85;0.68;;;27.20;25.50;;;;;;5042939;28;20067;-75
2023/08/28 12:07:30;;;;;;;1.45;0.60;;;27.40;1.00;;;;;;5039955;28;20423;-75
2023/08/28 12:09:56;;;;;;;1.83;0.52;;;27.60;99.90;;;;;;5005041;28;20145;-74
2023/08/28 12:12:23;;;;;;;1.77;0.68;;;27.70;1.00;;;;;;5042240;28;20075;-73
2023/08/28 12:14:49;;;;;;;2.05;0.65;;;27.70;1.00;;;;;;5038738;28;20056;-75
2023/08/28 12:17:34;;;;;;;2.58;0.80;;;28.00;1.00;;;;;;5053557;28;20050;-73
2023/08/28 12:19:59;;;;;;;2.70;0.60;;;28.10;99.90;;;;;;5030991;28;20053;-75
2023/08/28 12:22:25;;;;;;;1.52;0.47;;;27.80;99.90;;;;;;5037310;28;20063;-73
2023/08/28 12:24:52;;;;;;;1.52;0.45;;;27.30;91.60;;;;;;5038144;28;20048;-72
2023/08/28 12:27:25;;;;;;;2.72;0.63;;;27.00;37.50;;;;;;5027589;28;20055;-72
2023/08/28 12:29:51;;;;;;;2.53;0.50;;;26.90;1.00;;;;;;5038278;28;20134;-75
2023/08/28 12:32:19;;;;;;;3.13;0.88;;;27.00;79.30;;;;;;5040653;28;20182;-72
2023/08/28 12:34:46;;;;;;;2.67;0.70;;;27.20;1.00;;;;;;5018420;28;20104;-75
2023/08/28 12:37:13;;;;;;;1.42;0.60;;;27.30;1.00;;;;;;5040472;28;20047;-73
2023/08/28 12:39:46;;;;;;;1.27;0.55;;;27.00;1.00;;;;;;5034212;28;20190;-74
2023/08/28 12:42:15;;;;;;;2.13;0.50;;;27.10;99.90;;;;;;5033633;28;20048;-75
2023/08/28 12:44:44;;;;;;;1.95;0.50;;;27.30;99.90;;;;;;5033115;28;20107;-74
2023/08/28 12:47:11;;;;;;;1.35;0.50;;;27.50;1.00;;;;;;5015829;28;20044;-74
2023/08/28 12:49:42;;;;;;;2.15;0.70;;;27.80;1.00;;;;;;5032587;28;20131;-73